Latest Weather Observations for Mount Isa

IDQ60801

Issued at 6:42 pm EST Thursday 3 September 2026 (issued every 10 minutes, with the page automatically refreshed every 10 minutes)

About weather observations | Map of weather stations | Latest weather observations for QLD | Other Formats
Station Details ID: 029127 Name: MOUNT ISA AERO Lat: -20.68 Lon: 139.49 Height: 340.3 m
Data from the previous 72 hours. | See also: Recent months at Mount Isa
Date/Time
EST
Temp
°C
App
Temp
°C
Dew
Point
°C
Rel
Hum
%
Delta-T
°C
Wind Press
QNH
hPa
Press
MSL
hPa
Rain since
9am
mm
Dir  Spd
km/h
Gust
km/h
Spd
kts
Gust
kts
03/06:30pm 27.5 24.2 2.6 20 12.4 ENE 9 11 5 6 1017.5 1016.0 0.0
03/06:00pm 30.0 26.5 1.5 16 14.2 E 9 15 5 8 1017.4 1015.9 0.0
03/05:30pm 31.3 27.1 1.6 15 14.9 ESE 13 19 7 10 1017.3 1015.8 0.0
03/05:00pm 31.8 27.3 2.0 15 15.1 E 15 20 8 11 1017.2 1015.7 0.0
03/04:30pm 32.4 28.0 2.5 15 15.4 E 15 30 8 16 1017.2 1015.7 0.0
03/04:00pm 32.7 29.1 2.7 15 15.5 E 11 20 6 11 1017.3 1015.8 0.0
03/03:30pm 32.6 28.2 2.6 15 15.5 E 15 26 8 14 1017.6 1016.1 0.0
03/03:00pm 33.1 29.5 3.0 15 15.6 NE 11 28 6 15 1018.0 1016.4 0.0
03/02:30pm 32.3 28.2 2.4 15 15.3 SSE 13 30 7 16 1018.5 1017.0 0.0
03/02:00pm 32.1 28.4 2.2 15 15.2 ENE 11 22 6 12 1018.9 1017.4 0.0
03/01:30pm 32.4 29.4 4.2 17 14.9 SSE 9 19 5 10 1019.3 1017.8 0.0
03/01:00pm 31.3 26.3 3.4 17 14.4 SE 19 32 10 17 1019.8 1018.3 0.0
03/12:30pm 30.9 27.2 4.6 19 13.9 NNE 13 26 7 14 1020.3 1018.8 0.0
03/12:00pm 31.0 27.5 5.4 20 13.7 NNE 13 24 7 13 1021.1 1019.6 0.0
03/11:30am 30.4 27.2 7.0 23 12.8 NNE 13 20 7 11 1021.6 1020.1 0.0
03/11:00am 29.3 25.9 6.0 23 12.4 ENE 13 20 7 11 1022.1 1020.6 0.0
03/10:30am 28.7 26.2 6.7 25 11.9 ENE 9 19 5 10 1022.3 1020.8 0.0
03/10:00am 27.6 24.9 5.8 25 11.5 N 9 17 5 9 1022.4 1020.9 0.0
03/09:30am 27.2 23.7 7.1 28 10.8 NNW 15 20 8 11 1022.4 1020.9 0.0
03/09:00am 24.7 21.7 7.8 34 9.1 WNW 13 17 7 9 1022.4 1020.9 0.0
03/08:30am 20.8 20.7 10.9 53 5.5 ESE 2 7 1 4 1022.0 1020.5 0.0
03/08:00am 16.8 16.8 9.7 63 3.8 CALM 0 0 0 0 1021.6 1020.1 0.0
03/07:56am 16.6 16.7 10.0 65 3.5 CALM 0 0 0 0 1021.6 1020.1 0.0
03/07:30am 11.6 11.3 8.6 82 1.5 CALM 0 0 0 0 1021.3 1019.8 0.0
03/07:00am 8.8 8.0 6.6 86 1.0 CALM 0 0 0 0 1020.6 1019.1 0.0
03/06:30am 9.0 8.3 6.8 86 1.0 CALM 0 0 0 0 1020.3 1018.8 0.0
03/06:00am 9.0 8.2 6.6 85 1.1 CALM 0 0 0 0 1020.0 1018.5 0.0
03/05:30am 9.1 8.3 6.5 84 1.2 CALM 0 0 0 0 1019.6 1018.1 0.0
03/05:00am 9.7 8.9 6.6 81 1.5 CALM 0 0 0 0 1019.4 1017.9 0.0
03/04:30am 9.8 9.0 6.7 81 1.5 CALM 0 0 0 0 1019.1 1017.6 0.0
03/04:00am 10.0 9.3 6.9 81 1.5 CALM 0 0 0 0 1019.1 1017.6 0.0
03/03:30am 9.9 8.3 6.4 79 1.7 ESE 4 7 2 4 1019.1 1017.6 0.0
03/03:00am 10.7 9.9 6.6 76 2.0 CALM 0 0 0 0 1019.0 1017.5 0.0
03/02:30am 10.7 9.9 6.6 76 2.0 CALM 0 0 0 0 1019.1 1017.6 0.0
03/02:00am 11.2 10.4 6.7 74 2.2 CALM 0 0 0 0 1019.2 1017.7 0.0
03/01:30am 11.3 10.6 6.8 74 2.2 CALM 0 0 0 0 1019.3 1017.8 0.0
03/01:00am 11.7 10.9 6.6 71 2.5 CALM 0 0 0 0 1019.4 1017.9 0.0
03/12:30am 12.1 11.3 6.4 68 2.8 CALM 0 0 0 0 1019.6 1018.1 0.0
03/12:00am 12.5 11.8 6.8 68 2.8 CALM 0 0 0 0 1019.7 1018.2 0.0
 
Date/Time
EST
Temp
°C
App
Temp
°C
Dew
Point
°C
Rel
Hum
%
Delta-T
°C
Wind Press
QNH
hPa
Press
MSL
hPa
Rain since
9am
mm
Dir  Spd
km/h
Gust
km/h
Spd
kts
Gust
kts
02/11:30pm 12.9 12.1 6.7 66 3.0 CALM 0 0 0 0 1019.7 1018.2 0.0
02/11:00pm 13.4 12.6 6.5 63 3.4 CALM 0 0 0 0 1019.8 1018.3 0.0
02/10:30pm 13.6 12.8 6.5 62 3.5 CALM 0 0 0 0 1019.8 1018.3 0.0
02/10:00pm 14.9 13.3 6.2 56 4.3 ESE 4 7 2 4 1019.8 1018.3 0.0
02/09:30pm 14.8 14.0 6.4 57 4.1 CALM 0 4 0 2 1019.6 1018.1 0.0
02/09:00pm 15.8 14.2 6.3 53 4.7 NE 4 11 2 6 1019.3 1017.8 0.0
02/08:30pm 16.3 15.5 6.4 52 4.9 CALM 0 0 0 0 1019.0 1017.5 0.0
02/08:28pm 16.4 15.6 6.5 52 4.9 CALM 0 0 0 0 1019.0 1017.5 0.0
02/08:14pm 16.8 16.0 6.6 51 5.1 CALM 0 0 0 0 1018.8 1017.3 0.0
02/08:00pm 17.5 16.7 6.4 48 5.6 CALM 0 0 0 0 1018.6 1017.1 0.0
02/07:30pm 19.0 18.1 6.2 43 6.5 CALM 0 0 0 0 1018.3 1016.8 0.0
02/07:00pm 22.0 19.4 6.3 36 8.1 NE 9 13 5 7 1018.0 1016.4 0.0
02/06:30pm 26.8 24.0 5.1 25 11.3 ENE 9 13 5 7 1017.5 1016.0 0.0
02/06:00pm 29.9 26.2 4.5 20 13.3 ENE 13 22 7 12 1017.3 1015.8 0.0
02/05:30pm 30.8 27.1 4.5 19 13.8 ESE 13 20 7 11 1017.1 1015.6 0.0
02/05:00pm 31.1 29.0 4.0 18 14.2 ENE 4 11 2 6 1017.2 1015.7 0.0
02/04:30pm 31.1 27.2 5.5 20 13.7 NE 15 22 8 12 1017.2 1015.7 0.0
02/04:00pm 31.6 28.4 5.2 19 14.1 NE 11 19 6 10 1017.3 1015.8 0.0
02/03:30pm 31.3 27.9 5.7 20 13.8 E 13 24 7 13 1017.6 1016.1 0.0
02/03:00pm 31.7 28.7 6.0 20 13.9 NE 11 20 6 11 1018.0 1016.4 0.0
02/02:30pm 31.5 28.8 7.2 22 13.4 ENE 11 22 6 12 1018.4 1016.9 0.0
02/02:00pm 30.8 27.5 7.9 24 12.7 NNE 15 20 8 11 1019.0 1017.5 0.0
02/01:30pm 30.6 27.6 7.7 24 12.7 E 13 20 7 11 1019.5 1018.0 0.0
02/01:00pm 29.5 27.6 7.4 25 12.1 SE 7 11 4 6 1020.1 1018.6 0.0
02/12:30pm 29.8 26.8 7.7 25 12.2 ESE 13 19 7 10 1020.9 1019.4 0.0
02/12:00pm 30.0 27.2 8.4 26 12.0 NE 13 26 7 14 1021.6 1020.1 0.0
02/11:30am 28.7 25.5 8.4 28 11.3 NE 15 24 8 13 1022.2 1020.7 0.0
02/11:00am 27.6 23.5 8.0 29 10.7 NNE 19 26 10 14 1022.5 1021.0 0.0
02/10:30am 27.0 22.8 8.4 31 10.2 NNE 20 28 11 15 1022.9 1021.4 0.0
02/10:00am 25.9 22.1 7.5 31 9.9 NE 17 24 9 13 1023.1 1021.6 0.0
02/09:30am 24.9 21.4 7.1 32 9.5 NE 15 24 8 13 1023.2 1021.7 0.0
02/09:00am 23.2 20.9 7.3 36 8.4 NE 9 13 5 7 1023.1 1021.6 0.0
02/08:30am 21.3 19.9 10.8 51 5.9 N 9 13 5 7 1022.9 1021.4 0.0
02/08:00am 17.4 17.7 11.0 66 3.5 CALM 0 0 0 0 1022.4 1020.9 0.0
02/07:56am 15.9 16.7 12.6 81 1.8 CALM 0 0 0 0 1022.4 1020.9 0.0
02/07:30am 10.8 10.9 10.3 97 0.3 CALM 0 0 0 0 1022.3 1020.8 0.0
02/07:00am 8.9 8.5 8.1 95 0.4 CALM 0 0 0 0 1021.9 1020.4 0.0
02/06:30am 9.0 8.6 8.1 94 0.4 CALM 0 0 0 0 1021.5 1020.0 0.0
02/06:00am 9.1 8.7 8.3 95 0.4 CALM 0 0 0 0 1021.2 1019.7 0.0
02/05:30am 9.3 8.9 8.1 92 0.6 CALM 0 0 0 0 1021.0 1019.5 0.0
02/05:00am 9.6 9.2 8.4 92 0.6 CALM 0 0 0 0 1020.7 1019.2 0.0
02/04:30am 9.7 9.3 8.3 91 0.7 CALM 0 0 0 0 1020.6 1019.1 0.0
02/04:00am 9.9 9.5 8.3 90 0.8 CALM 0 0 0 0 1020.7 1019.2 0.0
02/03:30am 10.3 10.1 9.1 92 0.6 CALM 0 0 0 0 1020.7 1019.2 0.0
02/03:00am 10.6 10.3 8.7 88 0.9 CALM 0 0 0 0 1020.7 1019.2 0.0
02/02:30am 10.9 10.7 9.0 88 1.0 CALM 0 0 0 0 1020.9 1019.4 0.0
02/02:00am 11.1 10.9 9.0 87 1.1 CALM 0 0 0 0 1021.0 1019.5 0.0
02/01:30am 11.5 11.3 9.1 85 1.2 CALM 0 0 0 0 1021.1 1019.6 0.0
02/01:00am 12.0 11.8 9.0 82 1.5 CALM 0 0 0 0 1021.1 1019.6 0.0
02/12:30am 12.1 11.9 9.1 82 1.5 CALM 0 0 0 0 1021.3 1019.8 0.0
02/12:00am 12.7 12.5 9.2 79 1.8 CALM 0 0 0 0 1021.2 1019.7 0.0
 
Date/Time
EST
Temp
°C
App
Temp
°C
Dew
Point
°C
Rel
Hum
%
Delta-T
°C
Wind Press
QNH
hPa
Press
MSL
hPa
Rain since
9am
mm
Dir  Spd
km/h
Gust
km/h
Spd
kts
Gust
kts
01/11:30pm 13.3 13.2 9.4 77 2.0 CALM 0 0 0 0 1021.3 1019.8 0.0
01/11:00pm 13.9 13.9 9.9 77 2.1 CALM 0 0 0 0 1021.3 1019.8 0.0
01/10:30pm 13.9 13.8 9.3 74 2.4 CALM 0 0 0 0 1021.3 1019.8 0.0
01/10:00pm 14.8 14.8 9.8 72 2.6 CALM 0 0 0 0 1021.3 1019.8 0.0
01/09:30pm 15.5 15.4 9.4 67 3.2 CALM 0 4 0 2 1021.2 1019.7 0.0
01/09:00pm 15.7 15.3 9.8 68 3.1 NNW 2 7 1 4 1021.1 1019.6 0.0
01/08:30pm 16.4 16.3 9.3 63 3.7 CALM 0 0 0 0 1020.7 1019.2 0.0
01/08:00pm 17.5 17.5 9.7 60 4.2 CALM 0 0 0 0 1020.4 1018.9 0.0
01/07:30pm 18.9 18.9 9.7 55 5.0 CALM 0 0 0 0 1020.1 1018.6 0.0
01/07:00pm 21.1 20.4 10.0 49 6.1 NNW 4 6 2 3 1019.8 1018.3 0.0
01/06:30pm 25.0 23.7 10.1 39 8.4 NNW 7 9 4 5 1019.7 1018.2 0.0
01/06:00pm 28.0 26.5 8.3 29 10.9 NNW 6 7 3 4 1019.6 1018.1 0.0
01/05:30pm 28.5 26.5 8.7 29 11.0 WNW 9 13 5 7 1019.5 1018.0 0.0
01/05:00pm 29.0 27.1 9.2 29 11.1 N 9 19 5 10 1019.6 1018.1 0.0
01/04:30pm 28.9 26.6 9.1 29 11.1 NNW 11 17 6 9 1019.6 1018.1 0.0
01/04:00pm 29.0 27.0 8.7 28 11.3 E 9 13 5 7 1019.7 1018.2 0.0
01/03:30pm 28.9 26.2 9.1 29 11.1 ENE 13 19 7 10 1019.9 1018.4 0.0
01/03:00pm 28.0 25.8 9.3 31 10.5 ESE 11 19 6 10 1020.2 1018.7 0.0
01/02:30pm 29.1 26.9 9.3 29 11.2 NNE 11 24 6 13 1020.7 1019.2 0.0
01/02:00pm 28.6 25.1 8.8 29 11.0 NNE 17 28 9 15 1021.3 1019.8 0.0
01/01:30pm 28.4 25.8 9.2 30 10.8 NNE 13 28 7 15 1021.9 1020.4 0.0
01/01:00pm 28.4 25.3 11.5 35 9.8 NNE 19 39 10 21 1022.4 1020.9 0.0
01/12:30pm 28.1 25.5 12.0 36 9.5 NE 17 37 9 20 1023.0 1021.5 0.0
01/12:00pm 27.5 24.6 12.3 39 8.9 NNE 19 32 10 17 1023.5 1022.1 0.0
01/11:30am 26.4 22.9 12.1 41 8.4 NE 22 33 12 18 1024.2 1022.7 0.0
01/11:00am 26.0 22.1 12.1 42 8.1 NE 24 32 13 17 1024.5 1023.0 0.0
01/10:30am 25.5 21.6 12.0 43 7.8 NE 24 32 13 17 1024.7 1023.2 0.0
01/10:00am 24.8 20.5 12.1 45 7.3 NE 26 37 14 20 1024.8 1023.3 0.0
01/09:30am 23.6 20.2 11.3 46 7.0 NE 20 30 11 16 1024.7 1023.8 0.0
01/09:00am 22.2 18.9 9.7 45 6.8 ENE 17 24 9 13 1024.5 1023.6 0.0
01/08:30am 21.3 18.1 9.9 48 6.3 ENE 17 30 9 16 1024.2 1023.2 0.0
01/08:00am 19.6 19.7 10.0 54 5.2 CALM 0 11 0 6 1023.6 1022.7 0.0
01/07:55am 19.0 18.8 10.3 57 4.7 ENE 2 9 1 5 1023.6 1022.7 0.0
01/07:30am 13.9 12.5 9.7 76 2.2 ENE 7 9 4 5 1023.3 1022.4 0.0
01/07:00am 13.7 11.6 8.1 69 2.8 ENE 9 15 5 8 1022.9 1022.0 0.0
01/06:30am 12.1 10.3 7.8 75 2.1 E 7 9 4 5 1022.6 1021.7 0.0
01/06:00am 11.8 9.8 7.3 74 2.2 ESE 7 9 4 5 1022.0 1021.1 0.0
01/05:30am 12.5 10.5 7.2 70 2.6 ESE 7 9 4 5 1021.8 1020.9 0.0
01/05:00am 11.3 9.5 7.0 75 2.1 ESE 6 11 3 6 1021.7 1020.7 0.0
01/04:30am 9.6 7.6 6.9 83 1.3 ESE 7 9 4 5 1021.7 1020.7 0.0
01/04:00am 10.3 8.4 6.8 79 1.7 SE 6 7 3 4 1021.8 1020.9 0.0
01/03:30am 9.6 8.1 6.9 83 1.3 SE 4 7 2 4 1021.9 1021.0 0.0
01/03:00am 9.8 9.1 6.9 82 1.4 CALM 0 0 0 0 1022.0 1021.1 0.0
01/02:30am 10.0 9.4 7.3 83 1.3 CALM 0 0 0 0 1022.0 1021.1 0.0
01/02:00am 10.2 9.5 7.1 81 1.5 CALM 0 0 0 0 1022.2 1021.3 0.0
01/01:30am 10.5 9.9 7.2 80 1.6 CALM 0 0 0 0 1022.4 1021.5 0.0
01/01:00am 10.7 10.0 7.0 78 1.8 CALM 0 0 0 0 1022.6 1021.7 0.0
01/12:30am 11.0 10.3 7.1 77 1.9 CALM 0 0 0 0 1022.6 1021.7 0.0
01/12:00am 11.4 10.7 7.1 75 2.1 CALM 0 0 0 0 1022.5 1021.6 0.0
 
Date/Time
EST
Temp
°C
App
Temp
°C
Dew
Point
°C
Rel
Hum
%
Delta-T
°C
Wind Press
QNH
hPa
Press
MSL
hPa
Rain since
9am
mm
Dir  Spd
km/h
Gust
km/h
Spd
kts
Gust
kts
31/11:30pm 11.8 11.2 7.3 74 2.2 CALM 0 0 0 0 1022.6 1021.7 0.0
31/11:00pm 12.6 11.6 7.5 71 2.5 SE 2 6 1 3 1022.7 1021.8 0.0
31/10:30pm 13.0 11.2 7.2 68 2.9 ESE 6 7 3 4 1022.8 1021.9 0.0
31/10:00pm 14.0 13.0 7.3 64 3.3 ESE 2 7 1 4 1022.7 1021.8 0.0
31/09:30pm 15.7 13.4 7.5 58 4.2 ESE 9 11 5 6 1022.5 1021.6 0.0
31/09:00pm 17.8 15.1 7.5 51 5.3 ESE 11 13 6 7 1022.3 1021.4 0.0
31/08:30pm 17.8 15.2 7.8 52 5.2 E 11 13 6 7 1022.1 1021.2 0.0
31/08:00pm 18.2 16.1 8.2 52 5.2 ESE 9 11 5 6 1021.9 1021.0 0.0
31/07:30pm 20.2 17.5 7.2 43 6.7 SE 11 13 6 7 1021.8 1020.9 0.0
31/07:00pm 21.8 19.3 8.0 41 7.3 SE 11 13 6 7 1021.4 1020.4 0.0

Other formats

Comma delimited format used in spreadsheet applications
http://www.bom.gov.au/fwo/IDQ60801/IDQ60801.94332.axf

JavaScript Object Notation format (JSON) in row-major order
http://www.bom.gov.au/fwo/IDQ60801/IDQ60801.94332.json

Data quality

Most of these data are generated automatically and are frequently updated. Quality checks on data are not normally performed. It is possible for incorrect values to appear. Refer to information at About Latest Weather Observations and please check the disclaimer before using these data.